Time;durP1;ratioP1;P1;durP2;ratioP2;P2;SDS_P1;SDS_P2;PMS_P1;PMS_P2;Temp;Humidity;BMP_temperature;BMP_pressure;BME280_temperature;BME280_humidity;BME280_pressure;Samples;Min_cycle;Max_cycle;Signal;HPM_P1;HPM_P2
2022/12/01 00:02:06;;;;;;;132.13;65.55;;;5.50;99.90;;;;;;5018046;28;20380;-65
2022/12/01 00:04:31;;;;;;;124.93;62.88;;;6.10;99.90;;;;;;4998424;28;20399;-65
2022/12/01 00:06:57;;;;;;;123.78;63.35;;;6.50;99.90;;;;;;5015736;28;20084;-65
2022/12/01 00:12:07;;;;;;;119.28;62.78;;;5.40;99.90;;;;;;5033588;28;20045;-67
2022/12/01 00:14:32;;;;;;;120.05;63.47;;;6.30;99.90;;;;;;5029686;28;20135;-65
2022/12/01 00:16:58;;;;;;;125.35;63.65;;;6.40;99.90;;;;;;5017692;28;20036;-65
2022/12/01 00:19:27;;;;;;;126.38;63.33;;;6.30;99.90;;;;;;5019837;28;20516;-65
2022/12/01 00:21:53;;;;;;;123.28;63.33;;;5.50;99.90;;;;;;5035106;28;20051;-66
2022/12/01 00:24:19;;;;;;;126.00;65.35;;;6.40;99.90;;;;;;5019131;28;20032;-65
2022/12/01 00:26:44;;;;;;;127.90;66.13;;;5.60;99.90;;;;;;5037011;28;20032;-65
2022/12/01 00:29:10;;;;;;;131.88;66.28;;;5.60;99.90;;;;;;5033494;28;20146;-65
2022/12/01 00:31:36;;;;;;;130.95;64.97;;;5.60;99.90;;;;;;5034609;28;20056;-66
2022/12/01 00:34:02;;;;;;;129.65;64.13;;;6.40;99.90;;;;;;5003251;28;20077;-64
2022/12/01 00:36:27;;;;;;;129.18;66.10;;;5.30;99.90;;;;;;5034850;28;20090;-64
2022/12/01 00:38:55;;;;;;;126.95;65.55;;;6.40;99.90;;;;;;5019749;28;20682;-63
2022/12/01 00:41:22;;;;;;;132.52;66.57;;;5.30;99.90;;;;;;5036822;28;20036;-63
2022/12/01 00:43:49;;;;;;;135.02;68.35;;;5.60;99.90;;;;;;5053884;28;20024;-63
2022/12/01 00:46:14;;;;;;;149.80;70.55;;;5.30;99.90;;;;;;5031390;28;20124;-63
2022/12/01 00:48:40;;;;;;;133.88;66.68;;;5.60;99.90;;;;;;5036023;28;20032;-63
2022/12/01 00:51:06;;;;;;;137.75;67.32;;;6.20;99.90;;;;;;5035991;28;20121;-64
2022/12/01 00:53:31;;;;;;;136.45;67.85;;;6.20;99.90;;;;;;5025456;28;20518;-65
2022/12/01 00:55:57;;;;;;;129.52;64.32;;;5.90;99.90;;;;;;5036550;28;20044;-64
2022/12/01 00:58:23;;;;;;;131.15;66.07;;;6.20;99.90;;;;;;5053861;28;20043;-65
2022/12/01 01:00:56;;;;;;;137.70;66.63;;;6.40;99.90;;;;;;5033208;28;20040;-63
2022/12/01 01:03:22;;;;;;;136.35;68.78;;;6.10;99.90;;;;;;5054150;28;20258;-65
2022/12/01 01:05:49;;;;;;;137.20;67.65;;;6.00;99.90;;;;;;5053972;28;20658;-66
2022/12/01 01:08:14;;;;;;;141.73;69.18;;;6.20;99.90;;;;;;5052490;28;20041;-62
2022/12/01 01:10:43;;;;;;;140.70;67.32;;;5.40;99.90;;;;;;5023263;28;20067;-63
2022/12/01 01:13:09;;;;;;;146.50;68.85;;;5.50;99.90;;;;;;5039598;28;20526;-65
2022/12/01 01:15:35;;;;;;;132.18;62.92;;;6.40;99.90;;;;;;5037950;28;20893;-64
2022/12/01 01:18:01;;;;;;;139.65;67.65;;;5.60;99.90;;;;;;5037247;28;20036;-65
2022/12/01 01:20:27;;;;;;;151.15;73.38;;;6.40;99.90;;;;;;5029071;28;20476;-66
2022/12/01 01:22:52;;;;;;;144.93;68.47;;;6.40;99.90;;;;;;5038714;28;20079;-63
2022/12/01 01:25:18;;;;;;;142.95;66.18;;;6.30;99.90;;;;;;5022382;28;20510;-64
2022/12/01 01:27:44;;;;;;;149.95;71.00;;;5.70;99.90;;;;;;5057369;28;20139;-64
2022/12/01 01:30:10;;;;;;;155.27;71.32;;;6.40;99.90;;;;;;5038920;28;20048;-64
2022/12/01 01:32:36;;;;;;;148.05;69.90;;;6.00;99.90;;;;;;5054714;28;20545;-64
2022/12/01 01:35:01;;;;;;;144.50;70.93;;;5.40;99.90;;;;;;5039446;28;20358;-64
2022/12/01 01:37:27;;;;;;;152.95;72.30;;;6.30;99.90;;;;;;5039148;28;20319;-64
2022/12/01 01:39:53;;;;;;;148.20;71.32;;;5.60;99.90;;;;;;5038105;28;20777;-65
2022/12/01 01:42:19;;;;;;;155.32;72.45;;;5.30;99.90;;;;;;5039429;28;20088;-66
2022/12/01 01:44:57;;;;;;;151.23;71.95;;;5.30;99.90;;;;;;5057278;28;20059;-64
2022/12/01 01:47:33;;;;;;;150.95;72.13;;;5.50;99.90;;;;;;5021551;28;20051;-67
2022/12/01 01:50:07;;;;;;;153.68;72.63;;;6.00;99.90;;;;;;5036704;28;20051;-66
2022/12/01 01:52:37;;;;;;;141.18;67.95;;;6.40;99.90;;;;;;5039437;28;20071;-65
2022/12/01 01:55:03;;;;;;;144.10;67.68;;;6.20;99.90;;;;;;5019956;28;20036;-65
2022/12/01 01:57:32;;;;;;;149.00;70.82;;;5.30;99.90;;;;;;5040115;28;20036;-64
2022/12/01 02:00:06;;;;;;;146.18;69.13;;;6.10;99.90;;;;;;4994532;28;20134;-64
2022/12/01 02:02:39;;;;;;;146.85;69.82;;;6.20;99.90;;;;;;5056120;28;20051;-64
2022/12/01 02:05:12;;;;;;;142.27;67.75;;;5.40;99.90;;;;;;5053840;28;20037;-63
2022/12/01 02:07:39;;;;;;;147.18;70.82;;;5.60;99.90;;;;;;5058203;28;20056;-63
2022/12/01 02:10:07;;;;;;;157.57;74.50;;;5.90;99.90;;;;;;5054766;28;20526;-63
2022/12/01 02:12:33;;;;;;;144.82;68.10;;;5.50;99.90;;;;;;5038936;28;20044;-65
2022/12/01 02:15:17;;;;;;;150.70;70.60;;;5.20;99.90;;;;;;5022568;28;20272;-64
2022/12/01 02:17:52;;;;;;;150.63;69.78;;;6.40;99.90;;;;;;5056214;28;20113;-64
2022/12/01 02:20:30;;;;;;;144.43;69.18;;;6.00;99.90;;;;;;5054980;28;20068;-64
2022/12/01 02:23:22;;;;;;;152.75;68.93;;;5.30;99.90;;;;;;5056672;28;20052;-64
2022/12/01 02:26:10;;;;;;;152.88;70.65;;;5.90;99.90;;;;;;5037296;28;20043;-64
2022/12/01 02:29:12;;;;;;;162.15;75.20;;;5.60;99.90;;;;;;5038524;28;20131;-62
2022/12/01 02:31:59;;;;;;;149.00;71.28;;;6.40;99.90;;;;;;5038581;28;20135;-63
2022/12/01 02:34:45;;;;;;;161.90;74.25;;;6.40;99.90;;;;;;5020222;28;20043;-63
2022/12/01 02:37:29;;;;;;;150.95;68.95;;;5.20;99.90;;;;;;5036395;28;20198;-65
2022/12/01 02:40:22;;;;;;;149.68;71.55;;;6.30;99.90;;;;;;5020211;28;20074;-65
2022/12/01 02:42:48;;;;;;;156.50;70.05;;;6.50;99.90;;;;;;5033896;28;20256;-64
2022/12/01 02:45:23;;;;;;;156.98;72.82;;;5.80;99.90;;;;;;5057265;28;20049;-64
2022/12/01 02:47:52;;;;;;;155.30;73.05;;;6.20;99.90;;;;;;5055701;28;20406;-63
2022/12/01 02:50:20;;;;;;;137.75;68.55;;;5.50;99.90;;;;;;5037170;28;20047;-63
2022/12/01 02:52:47;;;;;;;154.82;70.13;;;5.70;99.90;;;;;;5036344;28;20048;-63
2022/12/01 02:55:12;;;;;;;147.07;70.53;;;5.50;99.90;;;;;;5021723;28;20040;-63
2022/12/01 02:57:38;;;;;;;143.38;67.80;;;5.90;99.90;;;;;;5037197;28;20036;-64
2022/12/01 03:00:05;;;;;;;144.57;67.65;;;5.90;99.90;;;;;;5006300;28;20044;-64
2022/12/01 03:03:02;;;;;;;139.73;68.65;;;5.90;99.90;;;;;;5038116;28;20048;-65
2022/12/01 03:05:57;;;;;;;137.73;67.47;;;5.30;99.90;;;;;;5037456;28;20563;-64
2022/12/01 03:08:52;;;;;;;140.80;67.68;;;5.30;99.90;;;;;;5024688;28;20415;-62
2022/12/01 03:11:27;;;;;;;145.82;66.18;;;5.70;99.90;;;;;;5001546;28;20060;-64
2022/12/01 03:13:58;;;;;;;141.80;67.15;;;5.70;99.90;;;;;;5038114;28;20044;-65
2022/12/01 03:16:28;;;;;;;144.43;67.38;;;5.70;99.90;;;;;;5055282;28;20524;-66
2022/12/01 03:19:29;;;;;;;138.48;65.07;;;5.70;99.90;;;;;;5035624;28;20569;-65
2022/12/01 03:22:04;;;;;;;135.73;64.97;;;6.50;99.90;;;;;;5007904;28;20495;-66
2022/12/01 03:24:34;;;;;;;137.50;65.93;;;6.50;99.90;;;;;;5034371;28;20036;-64
2022/12/01 03:27:02;;;;;;;128.45;63.40;;;6.50;99.90;;;;;;5036203;28;20476;-64
2022/12/01 03:29:42;;;;;;;129.98;63.63;;;5.30;99.90;;;;;;5036935;28;20113;-65
2022/12/01 03:32:22;;;;;;;130.50;64.40;;;6.00;99.90;;;;;;5054157;28;20378;-65
2022/12/01 03:34:53;;;;;;;128.82;64.00;;;5.50;99.90;;;;;;5035059;28;20109;-65
2022/12/01 03:37:39;;;;;;;127.93;60.53;;;5.80;99.90;;;;;;5037018;28;20119;-65
2022/12/01 03:40:08;;;;;;;120.40;58.55;;;5.40;99.90;;;;;;5052140;28;20040;-65
2022/12/01 03:42:40;;;;;;;130.52;60.65;;;5.60;99.90;;;;;;5035268;28;20040;-65
2022/12/01 03:45:16;;;;;;;123.47;59.38;;;6.50;99.90;;;;;;5036687;28;20052;-65
2022/12/01 03:47:43;;;;;;;109.80;56.03;;;6.50;99.90;;;;;;5053311;28;20499;-66
2022/12/01 03:50:12;;;;;;;107.47;55.03;;;5.50;99.90;;;;;;5019738;28;20044;-65
2022/12/01 03:53:04;;;;;;;109.40;55.15;;;5.60;99.90;;;;;;5036803;28;20036;-66
2022/12/01 03:55:36;;;;;;;113.82;55.13;;;6.60;99.90;;;;;;5034342;28;20049;-65
2022/12/01 03:58:02;;;;;;;101.28;53.42;;;6.10;99.90;;;;;;5002630;28;20298;-66
2022/12/01 04:00:30;;;;;;;97.47;52.03;;;6.60;99.90;;;;;;5036636;28;20068;-66
2022/12/01 04:02:57;;;;;;;98.45;50.22;;;6.60;99.90;;;;;;5036879;28;20191;-66
2022/12/01 04:05:24;;;;;;;101.63;52.47;;;5.80;99.90;;;;;;5018302;28;20055;-65
2022/12/01 04:07:50;;;;;;;100.60;51.92;;;5.80;99.90;;;;;;5002944;28;20049;-65
2022/12/01 04:10:16;;;;;;;94.47;50.55;;;6.60;99.90;;;;;;5053948;28;20584;-65
2022/12/01 04:12:42;;;;;;;96.80;50.45;;;5.60;99.90;;;;;;5017735;28;20040;-65
2022/12/01 04:15:11;;;;;;;94.15;49.88;;;5.80;99.90;;;;;;5035597;28;20508;-66
2022/12/01 04:17:38;;;;;;;93.15;47.53;;;5.60;99.90;;;;;;5036676;28;20040;-66
2022/12/01 04:20:05;;;;;;;87.22;47.05;;;6.00;99.90;;;;;;5018870;28;20518;-65
2022/12/01 04:22:32;;;;;;;92.05;49.25;;;6.50;99.90;;;;;;5052377;28;20048;-64
2022/12/01 04:24:58;;;;;;;90.30;49.30;;;5.70;99.90;;;;;;5011297;28;20101;-66
2022/12/01 04:27:24;;;;;;;96.50;50.25;;;6.00;99.90;;;;;;5034075;28;20044;-66
2022/12/01 04:29:49;;;;;;;97.57;50.38;;;5.90;99.90;;;;;;5017275;28;20127;-65
2022/12/01 04:32:15;;;;;;;95.00;50.30;;;6.00;99.90;;;;;;5027074;28;20076;-65
2022/12/01 04:34:41;;;;;;;97.22;50.03;;;5.80;99.90;;;;;;5035939;28;20580;-65
2022/12/01 04:37:08;;;;;;;94.00;50.20;;;5.50;99.90;;;;;;5034727;28;20044;-65
2022/12/01 04:39:34;;;;;;;94.88;48.22;;;5.70;99.90;;;;;;5036698;28;20130;-64
2022/12/01 04:42:00;;;;;;;92.68;49.35;;;6.00;99.90;;;;;;5018645;28;20044;-65
2022/12/01 04:44:26;;;;;;;93.97;48.88;;;6.10;99.90;;;;;;5034417;28;20101;-65
2022/12/01 04:46:52;;;;;;;88.15;47.15;;;6.40;99.90;;;;;;5040284;28;20040;-65
2022/12/01 04:49:19;;;;;;;94.22;48.95;;;6.30;99.90;;;;;;5039479;28;20043;-65
2022/12/01 04:51:45;;;;;;;87.03;47.45;;;5.90;99.90;;;;;;5035572;28;21536;-65
2022/12/01 04:54:10;;;;;;;84.40;45.35;;;6.50;99.90;;;;;;5037693;28;20382;-64
2022/12/01 04:56:36;;;;;;;82.30;45.33;;;5.90;99.90;;;;;;5023401;28;20047;-64
2022/12/01 04:59:02;;;;;;;88.85;47.63;;;6.00;99.90;;;;;;5056261;28;20263;-64
2022/12/01 05:01:28;;;;;;;85.50;46.65;;;5.50;99.90;;;;;;5039020;28;20429;-65
2022/12/01 05:03:54;;;;;;;85.55;45.47;;;5.50;99.90;;;;;;5057844;28;20089;-64
2022/12/01 05:06:26;;;;;;;82.75;45.67;;;6.30;99.90;;;;;;5040088;28;20040;-64
2022/12/01 05:08:58;;;;;;;81.68;45.08;;;6.50;99.90;;;;;;5037525;28;20032;-64
2022/12/01 05:11:26;;;;;;;79.88;43.88;;;6.60;99.90;;;;;;5015427;28;20733;-64
2022/12/01 05:13:52;;;;;;;80.45;45.63;;;6.40;99.90;;;;;;5022468;28;20040;-63
2022/12/01 05:16:23;;;;;;;77.25;42.78;;;5.90;99.90;;;;;;5036278;28;20037;-64
2022/12/01 05:20:55;;;;;;;80.22;43.45;;;5.70;99.90;;;;;;5057342;28;20119;-63
2022/12/01 05:21:37;;;;;;;79.03;44.85;;;6.30;99.90;;;;;;5044760;28;20056;-64
2022/12/01 05:24:03;;;;;;;85.70;46.25;;;6.60;99.90;;;;;;5021142;28;20114;-64
2022/12/01 05:26:28;;;;;;;72.90;41.85;;;5.70;99.90;;;;;;5039807;28;20124;-65
2022/12/01 05:28:54;;;;;;;78.50;43.83;;;5.60;99.90;;;;;;5022531;28;20053;-65
2022/12/01 05:31:20;;;;;;;83.93;47.53;;;6.30;99.90;;;;;;5054453;28;20562;-65
2022/12/01 05:33:45;;;;;;;82.00;45.63;;;5.70;99.90;;;;;;5039551;28;20469;-65
2022/12/01 05:36:11;;;;;;;89.72;46.35;;;6.40;99.90;;;;;;5022422;28;20094;-64
2022/12/01 05:38:37;;;;;;;88.07;48.50;;;6.60;99.90;;;;;;5057109;28;20619;-65
2022/12/01 05:41:02;;;;;;;80.15;44.55;;;5.70;99.90;;;;;;5056146;28;20123;-64
2022/12/01 05:43:28;;;;;;;80.38;44.08;;;6.60;99.90;;;;;;5039160;28;20482;-63
2022/12/01 05:45:54;;;;;;;86.60;47.05;;;5.60;99.90;;;;;;5037671;28;20044;-64
2022/12/01 05:48:20;;;;;;;83.40;44.88;;;5.70;99.90;;;;;;5036802;28;20545;-63
2022/12/01 05:50:45;;;;;;;78.32;44.17;;;5.70;99.90;;;;;;5038856;28;20245;-63
2022/12/01 05:53:12;;;;;;;91.03;46.53;;;5.90;99.90;;;;;;5057270;28;20045;-63
2022/12/01 05:55:38;;;;;;;80.10;44.65;;;5.70;99.90;;;;;;5036588;28;20124;-63
2022/12/01 05:58:04;;;;;;;83.40;44.67;;;5.90;99.90;;;;;;5058208;28;20063;-63
2022/12/01 06:00:29;;;;;;;80.20;44.97;;;6.00;99.90;;;;;;5022142;28;20147;-63
2022/12/01 06:02:55;;;;;;;84.47;45.38;;;6.30;99.90;;;;;;5018183;28;20280;-63
2022/12/01 06:05:21;;;;;;;71.60;41.30;;;6.00;99.90;;;;;;5039647;28;20121;-63
2022/12/01 06:07:46;;;;;;;77.13;43.65;;;5.60;99.90;;;;;;5039059;28;20187;-64
2022/12/01 06:10:12;;;;;;;79.78;44.75;;;5.50;99.90;;;;;;5036661;28;20036;-63
2022/12/01 06:12:38;;;;;;;73.63;41.38;;;6.40;99.90;;;;;;5038417;28;20501;-63
2022/12/01 06:15:05;;;;;;;73.63;40.45;;;6.50;99.90;;;;;;5038786;28;20040;-63
2022/12/01 06:17:31;;;;;;;71.50;41.10;;;5.60;99.90;;;;;;5036493;28;20283;-64
2022/12/01 06:19:58;;;;;;;69.20;40.30;;;6.30;99.90;;;;;;5019145;28;20040;-63
2022/12/01 06:22:24;;;;;;;72.47;41.88;;;6.50;99.90;;;;;;5056243;28;20219;-65
2022/12/01 06:24:50;;;;;;;67.20;40.30;;;6.40;99.90;;;;;;5038075;28;20124;-63
2022/12/01 06:27:16;;;;;;;65.93;39.60;;;6.10;99.90;;;;;;5037760;28;20040;-63
2022/12/01 06:29:41;;;;;;;62.58;38.00;;;5.60;99.90;;;;;;5057979;28;20068;-65
2022/12/01 06:32:10;;;;;;;64.20;38.30;;;6.20;99.90;;;;;;5038671;28;20093;-63
2022/12/01 06:34:35;;;;;;;62.33;36.85;;;6.00;99.90;;;;;;5051737;28;20273;-63
2022/12/01 06:37:01;;;;;;;64.53;38.13;;;5.80;99.90;;;;;;5039589;28;20051;-64
2022/12/01 06:39:27;;;;;;;63.95;37.70;;;6.50;99.90;;;;;;5058132;28;20079;-63
2022/12/01 06:41:52;;;;;;;58.50;34.90;;;6.70;99.90;;;;;;5021531;28;20075;-64
2022/12/01 06:44:18;;;;;;;64.10;38.30;;;5.80;99.90;;;;;;5004460;28;20136;-64
2022/12/01 06:46:44;;;;;;;61.75;37.92;;;6.00;99.90;;;;;;5038799;28;20048;-64
2022/12/01 06:49:11;;;;;;;66.45;38.65;;;5.80;99.90;;;;;;5020388;28;20044;-64
2022/12/01 06:51:37;;;;;;;62.35;37.47;;;5.70;99.90;;;;;;5054524;28;20040;-64
2022/12/01 06:54:03;;;;;;;67.50;39.80;;;6.00;99.90;;;;;;5055729;28;20348;-65
2022/12/01 06:56:29;;;;;;;71.55;41.30;;;5.70;99.90;;;;;;5052947;28;20541;-65
2022/12/01 06:58:54;;;;;;;77.03;42.38;;;6.50;99.90;;;;;;5021072;28;20051;-65
2022/12/01 07:01:20;;;;;;;80.63;44.30;;;6.40;99.90;;;;;;5055446;28;20090;-64
2022/12/01 07:03:48;;;;;;;84.97;45.25;;;5.30;99.90;;;;;;5038094;28;20044;-65
2022/12/01 07:06:13;;;;;;;81.45;45.53;;;5.20;99.90;;;;;;5034537;28;20509;-65
2022/12/01 07:08:39;;;;;;;82.35;46.72;;;6.30;99.90;;;;;;5037988;28;20052;-65
2022/12/01 07:11:07;;;;;;;90.72;48.45;;;5.60;99.90;;;;;;5055027;28;20068;-66
2022/12/01 07:13:33;;;;;;;95.38;49.08;;;5.10;99.90;;;;;;5037794;28;20055;-65
2022/12/01 07:16:03;;;;;;;93.32;47.70;;;6.20;99.90;;;;;;5038545;28;20044;-65
2022/12/01 07:18:30;;;;;;;83.82;46.10;;;5.00;99.90;;;;;;5054900;28;20104;-65
2022/12/01 07:21:00;;;;;;;86.47;45.42;;;4.60;99.90;;;;;;5013962;28;20048;-66
2022/12/01 07:23:26;;;;;;;86.20;46.38;;;6.00;99.90;;;;;;5013310;28;20276;-64
2022/12/01 07:26:04;;;;;;;89.15;46.30;;;5.00;99.90;;;;;;5046257;28;20067;-65
2022/12/01 07:28:29;;;;;;;80.13;43.83;;;5.30;99.90;;;;;;5031484;28;20045;-65
2022/12/01 07:31:05;;;;;;;80.47;43.28;;;6.10;99.90;;;;;;4989214;28;20497;-66
2022/12/01 07:33:31;;;;;;;80.18;43.88;;;6.10;99.90;;;;;;5032941;28;20098;-66
2022/12/01 07:35:57;;;;;;;84.03;45.25;;;6.00;99.90;;;;;;5033467;28;20041;-66
2022/12/01 07:38:23;;;;;;;88.25;46.70;;;5.80;99.90;;;;;;5035126;28;20029;-65
2022/12/01 07:40:49;;;;;;;87.38;45.72;;;5.10;99.90;;;;;;5018685;28;20047;-63
2022/12/01 07:43:14;;;;;;;81.07;44.28;;;6.10;99.90;;;;;;5033702;28;20423;-63
2022/12/01 07:45:40;;;;;;;87.88;46.53;;;6.00;99.90;;;;;;5017280;28;20187;-63
2022/12/01 07:48:06;;;;;;;86.03;47.17;;;6.00;99.90;;;;;;5017937;28;20131;-66
2022/12/01 07:50:32;;;;;;;86.88;47.20;;;4.80;99.90;;;;;;5014849;28;20076;-65
2022/12/01 07:52:57;;;;;;;91.28;47.50;;;5.70;99.90;;;;;;5030596;28;20037;-63
2022/12/01 07:55:23;;;;;;;90.80;47.80;;;4.80;99.90;;;;;;5031950;28;20041;-63
2022/12/01 07:57:48;;;;;;;82.95;45.33;;;4.80;99.90;;;;;;5033959;28;20200;-62
2022/12/01 08:00:14;;;;;;;86.90;48.70;;;6.00;99.90;;;;;;5033546;28;20048;-62
2022/12/01 08:02:40;;;;;;;90.07;49.00;;;6.30;99.90;;;;;;5033536;28;20055;-64
2022/12/01 08:05:06;;;;;;;91.82;47.95;;;5.30;99.90;;;;;;5032850;28;20045;-65
2022/12/01 08:07:32;;;;;;;84.38;46.20;;;5.00;99.90;;;;;;5031538;28;20041;-65
2022/12/01 08:09:57;;;;;;;86.72;47.92;;;5.80;99.90;;;;;;5029621;28;20384;-64
2022/12/01 08:12:23;;;;;;;98.13;49.38;;;6.00;99.90;;;;;;5017208;28;20135;-65
2022/12/01 08:14:49;;;;;;;94.30;51.42;;;6.00;99.90;;;;;;5014391;28;20056;-65
2022/12/01 08:17:14;;;;;;;94.65;48.67;;;5.20;99.90;;;;;;5016680;28;20041;-63
2022/12/01 08:19:40;;;;;;;103.70;50.88;;;4.80;99.90;;;;;;5033776;28;20048;-62
2022/12/01 08:22:06;;;;;;;95.47;48.45;;;5.20;99.90;;;;;;5049293;28;20060;-64
2022/12/01 08:24:31;;;;;;;101.35;48.72;;;6.00;99.90;;;;;;5018138;28;20353;-64
2022/12/01 08:26:57;;;;;;;97.60;51.92;;;4.90;99.90;;;;;;5034409;28;20545;-64
2022/12/01 08:29:23;;;;;;;103.20;51.72;;;5.90;99.90;;;;;;5016021;28;20063;-65
2022/12/01 08:31:48;;;;;;;104.47;52.67;;;4.40;99.90;;;;;;5019793;28;20949;-64
2022/12/01 08:34:14;;;;;;;90.60;49.60;;;4.30;99.90;;;;;;5037524;28;21022;-64
2022/12/01 08:36:40;;;;;;;94.80;50.05;;;5.30;99.90;;;;;;5004452;28;20790;-64
2022/12/01 08:39:07;;;;;;;90.32;47.00;;;6.00;99.90;;;;;;5002312;28;20068;-64
2022/12/01 08:41:32;;;;;;;88.20;48.67;;;5.60;99.90;;;;;;5025060;28;20056;-65
2022/12/01 08:43:58;;;;;;;87.53;48.65;;;6.00;99.90;;;;;;5036991;28;20680;-64
2022/12/01 08:46:26;;;;;;;87.13;49.22;;;5.00;99.90;;;;;;5035709;28;20072;-65
2022/12/01 08:48:53;;;;;;;90.45;50.22;;;5.10;99.90;;;;;;5036411;28;20048;-64
2022/12/01 08:51:19;;;;;;;83.88;46.97;;;6.20;99.90;;;;;;5038017;28;20048;-64
2022/12/01 08:53:47;;;;;;;86.85;46.90;;;6.30;99.90;;;;;;5054559;28;20486;-64
2022/12/01 08:56:14;;;;;;;82.75;44.95;;;6.10;99.90;;;;;;5020546;28;20540;-63
2022/12/01 08:58:40;;;;;;;87.82;47.90;;;5.70;99.90;;;;;;5054913;28;20048;-63
2022/12/01 09:01:09;;;;;;;86.57;46.67;;;6.20;99.90;;;;;;5056361;28;20048;-64
2022/12/01 09:03:37;;;;;;;83.47;47.33;;;5.80;99.90;;;;;;5055566;28;20052;-66
2022/12/01 09:06:12;;;;;;;85.57;47.47;;;5.70;99.90;;;;;;5054769;28;20044;-66
2022/12/01 09:08:38;;;;;;;86.78;47.28;;;6.60;99.90;;;;;;5052249;28;20028;-65
2022/12/01 09:11:09;;;;;;;88.03;46.65;;;6.60;99.90;;;;;;5036039;28;20569;-67
2022/12/01 09:13:38;;;;;;;88.20;48.83;;;6.80;99.90;;;;;;5051310;28;20529;-63
2022/12/01 09:16:07;;;;;;;87.57;46.85;;;6.70;99.90;;;;;;5051923;28;20068;-63
2022/12/01 09:18:34;;;;;;;86.97;47.63;;;6.40;99.90;;;;;;5016952;28;20154;-64
2022/12/01 09:21:00;;;;;;;87.20;44.55;;;5.90;99.90;;;;;;5033764;28;20341;-64
2022/12/01 09:23:26;;;;;;;85.05;46.47;;;6.40;99.90;;;;;;5051189;28;20371;-64
2022/12/01 09:25:52;;;;;;;89.57;48.35;;;5.90;99.90;;;;;;5035069;28;20055;-64
2022/12/01 09:28:18;;;;;;;91.18;46.45;;;6.70;99.90;;;;;;5035209;28;20049;-64
2022/12/01 09:30:45;;;;;;;73.93;38.63;;;6.10;99.90;;;;;;5036498;28;20064;-65
2022/12/01 09:33:12;;;;;;;81.72;43.15;;;6.00;99.90;;;;;;5038772;28;20044;-64
2022/12/01 09:35:38;;;;;;;85.47;45.42;;;6.00;99.90;;;;;;5057672;28;20481;-64
2022/12/01 09:38:04;;;;;;;78.63;43.30;;;6.20;99.90;;;;;;5058162;28;20032;-64
2022/12/01 09:40:41;;;;;;;78.50;44.03;;;6.40;99.90;;;;;;5038900;28;20056;-64
2022/12/01 09:43:21;;;;;;;77.60;44.33;;;6.00;99.90;;;;;;5040793;28;20127;-64
2022/12/01 09:45:51;;;;;;;83.95;47.65;;;6.60;99.90;;;;;;5054786;28;20040;-65
2022/12/01 09:48:28;;;;;;;90.20;47.70;;;6.00;99.90;;;;;;5056933;28;20048;-64
2022/12/01 09:50:54;;;;;;;87.53;46.40;;;6.70;99.90;;;;;;5039980;28;20044;-64
2022/12/01 09:53:23;;;;;;;91.05;47.92;;;6.60;99.90;;;;;;5056860;28;20476;-64
2022/12/01 09:55:49;;;;;;;85.25;46.80;;;6.10;99.90;;;;;;5019621;28;20072;-64
2022/12/01 09:58:23;;;;;;;88.05;46.88;;;6.50;99.90;;;;;;5039163;28;20048;-63
2022/12/01 10:00:51;;;;;;;90.10;47.33;;;5.80;99.90;;;;;;5054789;28;20048;-63
2022/12/01 10:03:45;;;;;;;81.70;45.10;;;5.70;99.90;;;;;;5037444;28;20700;-64
2022/12/01 10:06:19;;;;;;;81.88;46.85;;;5.80;99.90;;;;;;5058448;28;20115;-64
2022/12/01 10:08:59;;;;;;;87.55;47.55;;;5.80;99.90;;;;;;5040502;28;20072;-64
2022/12/01 10:11:34;;;;;;;87.03;47.70;;;6.30;99.90;;;;;;5056129;28;20446;-63
2022/12/01 10:14:02;;;;;;;83.53;45.20;;;5.90;99.90;;;;;;5056985;28;20136;-63
2022/12/01 10:16:59;;;;;;;89.57;46.90;;;5.90;99.90;;;;;;5036741;28;20040;-62
2022/12/01 10:19:34;;;;;;;95.75;49.67;;;6.60;99.90;;;;;;5053464;28;20048;-63
2022/12/01 10:22:19;;;;;;;89.82;48.83;;;6.30;99.90;;;;;;5056285;28;20524;-63
2022/12/01 10:24:57;;;;;;;82.05;45.88;;;6.70;99.90;;;;;;5039250;28;20044;-63
2022/12/01 10:27:31;;;;;;;86.30;47.95;;;6.10;99.90;;;;;;5053916;28;20567;-65
2022/12/01 10:30:19;;;;;;;89.25;48.40;;;6.30;99.90;;;;;;5038289;28;20505;-63
2022/12/01 10:32:51;;;;;;;84.50;46.60;;;6.70;99.90;;;;;;5033956;28;20048;-63
2022/12/01 10:35:19;;;;;;;83.20;47.17;;;6.20;99.90;;;;;;5039260;28;20037;-63
2022/12/01 10:37:46;;;;;;;90.63;48.65;;;6.10;99.90;;;;;;5058451;28;20499;-64
2022/12/01 10:40:14;;;;;;;84.57;47.47;;;6.60;99.90;;;;;;5039254;28;20722;-65
2022/12/01 10:42:46;;;;;;;86.07;47.40;;;6.50;99.90;;;;;;5020137;28;20136;-65
2022/12/01 10:45:35;;;;;;;76.22;44.83;;;6.20;99.90;;;;;;5055616;28;20037;-65
2022/12/01 10:48:17;;;;;;;81.35;46.45;;;6.80;99.90;;;;;;5016428;28;20083;-63
2022/12/01 10:50:53;;;;;;;79.30;43.60;;;6.80;99.90;;;;;;5036412;28;20052;-63
2022/12/01 10:53:21;;;;;;;82.35;45.67;;;6.50;99.90;;;;;;5038289;28;20051;-64
2022/12/01 10:55:50;;;;;;;79.72;43.78;;;6.10;99.90;;;;;;5038007;28;20063;-65
2022/12/01 10:58:18;;;;;;;79.82;45.50;;;6.60;99.90;;;;;;5025676;28;20068;-64
2022/12/01 11:00:57;;;;;;;77.07;44.10;;;6.50;99.90;;;;;;5056935;28;20450;-65
2022/12/01 11:03:29;;;;;;;80.13;43.33;;;6.60;99.90;;;;;;5051683;28;20476;-64
2022/12/01 11:05:58;;;;;;;70.43;40.05;;;6.10;99.90;;;;;;5019438;28;20045;-65
2022/12/01 11:08:42;;;;;;;69.15;41.35;;;6.20;99.90;;;;;;5037668;28;20650;-64
2022/12/01 11:11:35;;;;;;;75.47;42.65;;;6.10;99.90;;;;;;5054655;28;20045;-64
2022/12/01 11:14:05;;;;;;;64.97;39.53;;;6.40;99.90;;;;;;5036216;28;20090;-64
2022/12/01 11:16:37;;;;;;;60.47;37.55;;;6.60;99.90;;;;;;5021121;28;20032;-64
2022/12/01 11:19:27;;;;;;;64.53;38.77;;;6.60;99.90;;;;;;5020129;28;20044;-63
2022/12/01 11:21:59;;;;;;;70.70;40.53;;;6.20;99.90;;;;;;5054903;28;20299;-65
2022/12/01 11:24:31;;;;;;;72.95;40.20;;;6.60;99.90;;;;;;5055104;28;20047;-64
2022/12/01 11:26:57;;;;;;;70.97;41.15;;;6.20;99.90;;;;;;5037520;28;20428;-65
2022/12/01 11:29:23;;;;;;;67.65;40.40;;;6.60;99.90;;;;;;5037384;28;20585;-64
2022/12/01 11:31:50;;;;;;;67.50;40.88;;;6.30;99.90;;;;;;5037943;28;20452;-66
2022/12/01 11:34:23;;;;;;;65.75;39.53;;;6.00;99.90;;;;;;5038737;28;20044;-64
2022/12/01 11:36:53;;;;;;;63.85;38.25;;;6.20;99.90;;;;;;5017703;28;20047;-64
2022/12/01 11:39:25;;;;;;;68.40;40.78;;;6.00;99.90;;;;;;5055327;28;20068;-64
2022/12/01 11:42:10;;;;;;;70.65;42.40;;;6.00;99.90;;;;;;5038993;28;20526;-64
2022/12/01 11:44:37;;;;;;;67.97;40.45;;;5.80;99.90;;;;;;5054153;28;20783;-64
2022/12/01 11:47:22;;;;;;;63.72;40.65;;;5.80;99.90;;;;;;5035694;28;20153;-63
2022/12/01 11:49:56;;;;;;;66.30;40.42;;;5.90;99.90;;;;;;5037062;28;20291;-64
2022/12/01 11:52:23;;;;;;;58.72;36.53;;;6.00;99.90;;;;;;5033225;28;20094;-65
2022/12/01 11:55:10;;;;;;;68.90;41.92;;;6.40;99.90;;;;;;5036607;28;20097;-64
2022/12/01 11:57:45;;;;;;;70.07;41.88;;;6.50;99.90;;;;;;5036846;28;20042;-64
2022/12/01 12:00:19;;;;;;;60.90;38.42;;;6.20;99.90;;;;;;5052237;28;20764;-64
2022/12/01 12:03:00;;;;;;;66.95;42.13;;;6.50;99.90;;;;;;5054671;28;20601;-65
2022/12/01 12:05:38;;;;;;;64.15;40.63;;;6.00;99.90;;;;;;5056382;28;20047;-64
2022/12/01 12:08:45;;;;;;;68.30;41.75;;;6.40;99.90;;;;;;5034668;28;20044;-63
2022/12/01 12:11:19;;;;;;;68.47;42.92;;;6.10;99.90;;;;;;5021680;28;21279;-65
2022/12/01 12:13:47;;;;;;;69.75;42.80;;;6.30;99.90;;;;;;5055896;28;20063;-64
2022/12/01 12:16:25;;;;;;;66.95;40.58;;;6.30;99.90;;;;;;5037399;28;20313;-64
2022/12/01 12:19:13;;;;;;;69.95;42.88;;;6.10;99.90;;;;;;5038112;28;20472;-64
2022/12/01 12:21:59;;;;;;;71.60;43.20;;;6.20;99.90;;;;;;5037890;28;20071;-63
2022/12/01 12:25:04;;;;;;;71.63;42.92;;;6.30;99.90;;;;;;5055006;28;20115;-63
2022/12/01 12:27:30;;;;;;;69.88;42.97;;;5.80;99.90;;;;;;5036365;28;20072;-63
2022/12/01 12:30:14;;;;;;;72.50;43.17;;;6.00;99.90;;;;;;5054481;28;20381;-62
2022/12/01 12:32:45;;;;;;;71.03;42.22;;;6.10;99.90;;;;;;5054817;28;20036;-62
2022/12/01 12:35:26;;;;;;;76.55;47.00;;;6.10;99.90;;;;;;5056818;28;20083;-62
2022/12/01 12:38:07;;;;;;;73.22;44.50;;;5.90;99.90;;;;;;5034135;28;20041;-64
2022/12/01 12:40:39;;;;;;;70.50;44.58;;;5.60;99.90;;;;;;5018519;28;20048;-62
2022/12/01 12:43:22;;;;;;;76.20;46.25;;;6.40;99.90;;;;;;5054646;28;20324;-63
2022/12/01 12:46:10;;;;;;;71.20;46.38;;;5.90;99.90;;;;;;5052223;28;20405;-63
2022/12/01 12:49:13;;;;;;;71.18;44.20;;;6.10;99.90;;;;;;5053364;28;20059;-63
2022/12/01 12:51:59;;;;;;;76.82;45.67;;;5.70;99.90;;;;;;5055526;28;20068;-64
2022/12/01 12:54:36;;;;;;;73.45;44.38;;;5.90;99.90;;;;;;5052491;28;20446;-64